sensor_id;sensor_type;location;lat;lon;timestamp;P1;durP1;ratioP1;P2;durP2;ratioP2
45354;SDS011;31091;48.758;9.150;2023-11-21T00:01:09;5.18;;;2.17;;
45354;SDS011;31091;48.758;9.150;2023-11-21T00:03:54;8.80;;;3.13;;
45354;SDS011;31091;48.758;9.150;2023-11-21T00:06:40;9.48;;;3.25;;
45354;SDS011;31091;48.758;9.150;2023-11-21T00:09:25;7.47;;;3.03;;
45354;SDS011;31091;48.758;9.150;2023-11-21T00:12:11;6.22;;;2.42;;
45354;SDS011;31091;48.758;9.150;2023-11-21T00:14:57;12.63;;;2.10;;
45354;SDS011;31091;48.758;9.150;2023-11-21T00:17:42;8.68;;;2.42;;
45354;SDS011;31091;48.758;9.150;2023-11-21T00:20:27;7.50;;;3.03;;
45354;SDS011;31091;48.758;9.150;2023-11-21T00:23:13;8.18;;;2.63;;
45354;SDS011;31091;48.758;9.150;2023-11-21T00:25:58;6.10;;;2.05;;
45354;SDS011;31091;48.758;9.150;2023-11-21T00:28:43;8.40;;;2.47;;
45354;SDS011;31091;48.758;9.150;2023-11-21T00:31:28;9.32;;;2.67;;
45354;SDS011;31091;48.758;9.150;2023-11-21T00:34:15;10.90;;;2.95;;
45354;SDS011;31091;48.758;9.150;2023-11-21T00:37:01;6.40;;;2.28;;
45354;SDS011;31091;48.758;9.150;2023-11-21T00:39:47;7.38;;;2.47;;
45354;SDS011;31091;48.758;9.150;2023-11-21T00:42:32;7.30;;;2.47;;
45354;SDS011;31091;48.758;9.150;2023-11-21T00:45:18;6.80;;;2.60;;
45354;SDS011;31091;48.758;9.150;2023-11-21T00:48:04;6.28;;;2.30;;
45354;SDS011;31091;48.758;9.150;2023-11-21T00:50:49;9.95;;;2.70;;
45354;SDS011;31091;48.758;9.150;2023-11-21T00:53:35;5.55;;;2.40;;
45354;SDS011;31091;48.758;9.150;2023-11-21T00:56:20;6.75;;;2.45;;
45354;SDS011;31091;48.758;9.150;2023-11-21T00:59:05;6.10;;;1.92;;
45354;SDS011;31091;48.758;9.150;2023-11-21T01:01:52;7.00;;;2.30;;
45354;SDS011;31091;48.758;9.150;2023-11-21T01:04:38;5.10;;;2.15;;
45354;SDS011;31091;48.758;9.150;2023-11-21T01:07:23;9.55;;;2.45;;
45354;SDS011;31091;48.758;9.150;2023-11-21T01:10:09;7.60;;;2.53;;
45354;SDS011;31091;48.758;9.150;2023-11-21T01:12:54;4.75;;;1.52;;
45354;SDS011;31091;48.758;9.150;2023-11-21T01:15:40;5.72;;;1.77;;
45354;SDS011;31091;48.758;9.150;2023-11-21T01:18:25;7.90;;;2.00;;
45354;SDS011;31091;48.758;9.150;2023-11-21T01:21:22;6.22;;;2.00;;
45354;SDS011;31091;48.758;9.150;2023-11-21T01:24:08;8.32;;;2.10;;
45354;SDS011;31091;48.758;9.150;2023-11-21T01:27:02;6.85;;;2.20;;
45354;SDS011;31091;48.758;9.150;2023-11-21T01:29:47;3.60;;;2.00;;
45354;SDS011;31091;48.758;9.150;2023-11-21T01:32:32;7.00;;;1.60;;
45354;SDS011;31091;48.758;9.150;2023-11-21T01:35:18;5.75;;;1.52;;
45354;SDS011;31091;48.758;9.150;2023-11-21T01:38:03;7.22;;;2.13;;
45354;SDS011;31091;48.758;9.150;2023-11-21T01:40:49;2.47;;;1.30;;
45354;SDS011;31091;48.758;9.150;2023-11-21T01:43:34;5.32;;;1.42;;
45354;SDS011;31091;48.758;9.150;2023-11-21T01:46:19;3.65;;;1.50;;
45354;SDS011;31091;48.758;9.150;2023-11-21T01:49:05;9.43;;;2.00;;
45354;SDS011;31091;48.758;9.150;2023-11-21T01:51:50;3.45;;;1.63;;
45354;SDS011;31091;48.758;9.150;2023-11-21T01:54:37;4.70;;;1.80;;
45354;SDS011;31091;48.758;9.150;2023-11-21T01:57:22;5.80;;;2.47;;
45354;SDS011;31091;48.758;9.150;2023-11-21T02:00:07;8.70;;;1.95;;
45354;SDS011;31091;48.758;9.150;2023-11-21T02:03:01;8.25;;;2.50;;
45354;SDS011;31091;48.758;9.150;2023-11-21T02:05:47;3.90;;;1.40;;
45354;SDS011;31091;48.758;9.150;2023-11-21T02:08:32;6.05;;;1.95;;
45354;SDS011;31091;48.758;9.150;2023-11-21T02:11:18;3.97;;;1.80;;
45354;SDS011;31091;48.758;9.150;2023-11-21T02:14:04;6.35;;;2.15;;
45354;SDS011;31091;48.758;9.150;2023-11-21T02:16:52;5.18;;;1.80;;
45354;SDS011;31091;48.758;9.150;2023-11-21T02:19:38;3.17;;;1.50;;
45354;SDS011;31091;48.758;9.150;2023-11-21T02:22:24;4.25;;;1.58;;
45354;SDS011;31091;48.758;9.150;2023-11-21T02:25:11;7.13;;;1.45;;
45354;SDS011;31091;48.758;9.150;2023-11-21T02:27:58;6.53;;;1.30;;
45354;SDS011;31091;48.758;9.150;2023-11-21T02:30:44;3.17;;;1.42;;
45354;SDS011;31091;48.758;9.150;2023-11-21T02:33:29;4.90;;;1.42;;
45354;SDS011;31091;48.758;9.150;2023-11-21T02:36:15;3.88;;;1.60;;
45354;SDS011;31091;48.758;9.150;2023-11-21T02:39:00;3.25;;;1.15;;
45354;SDS011;31091;48.758;9.150;2023-11-21T02:41:45;5.47;;;1.40;;
45354;SDS011;31091;48.758;9.150;2023-11-21T02:44:31;3.95;;;1.60;;
45354;SDS011;31091;48.758;9.150;2023-11-21T02:47:16;5.38;;;1.92;;
45354;SDS011;31091;48.758;9.150;2023-11-21T02:50:01;8.13;;;1.80;;
45354;SDS011;31091;48.758;9.150;2023-11-21T02:52:46;4.75;;;1.77;;
45354;SDS011;31091;48.758;9.150;2023-11-21T02:55:32;4.47;;;1.60;;
45354;SDS011;31091;48.758;9.150;2023-11-21T02:58:19;4.30;;;1.25;;
45354;SDS011;31091;48.758;9.150;2023-11-21T03:01:04;4.93;;;1.30;;
45354;SDS011;31091;48.758;9.150;2023-11-21T03:03:50;2.03;;;1.10;;
45354;SDS011;31091;48.758;9.150;2023-11-21T03:06:40;4.65;;;0.90;;
45354;SDS011;31091;48.758;9.150;2023-11-21T03:09:25;5.38;;;1.17;;
45354;SDS011;31091;48.758;9.150;2023-11-21T03:12:11;7.10;;;1.95;;
45354;SDS011;31091;48.758;9.150;2023-11-21T03:14:57;4.28;;;1.08;;
45354;SDS011;31091;48.758;9.150;2023-11-21T03:17:42;4.90;;;1.60;;
45354;SDS011;31091;48.758;9.150;2023-11-21T03:20:27;3.08;;;1.05;;
45354;SDS011;31091;48.758;9.150;2023-11-21T03:23:13;2.63;;;1.13;;
45354;SDS011;31091;48.758;9.150;2023-11-21T03:25:58;6.15;;;1.40;;
45354;SDS011;31091;48.758;9.150;2023-11-21T03:28:44;2.17;;;1.10;;
45354;SDS011;31091;48.758;9.150;2023-11-21T03:31:31;1.83;;;1.00;;
45354;SDS011;31091;48.758;9.150;2023-11-21T03:34:22;6.65;;;1.40;;
45354;SDS011;31091;48.758;9.150;2023-11-21T03:37:08;2.08;;;1.10;;
45354;SDS011;31091;48.758;9.150;2023-11-21T03:39:54;2.35;;;1.15;;
45354;SDS011;31091;48.758;9.150;2023-11-21T03:42:40;3.50;;;1.30;;
45354;SDS011;31091;48.758;9.150;2023-11-21T03:45:25;2.97;;;1.25;;
45354;SDS011;31091;48.758;9.150;2023-11-21T03:48:11;3.28;;;1.30;;
45354;SDS011;31091;48.758;9.150;2023-11-21T03:50:57;4.05;;;1.02;;
45354;SDS011;31091;48.758;9.150;2023-11-21T03:53:42;1.75;;;1.20;;
45354;SDS011;31091;48.758;9.150;2023-11-21T03:56:27;4.97;;;1.73;;
45354;SDS011;31091;48.758;9.150;2023-11-21T03:59:13;3.13;;;1.23;;
45354;SDS011;31091;48.758;9.150;2023-11-21T04:01:58;4.20;;;1.50;;
45354;SDS011;31091;48.758;9.150;2023-11-21T04:04:43;2.63;;;1.40;;
45354;SDS011;31091;48.758;9.150;2023-11-21T04:07:29;3.00;;;1.23;;
45354;SDS011;31091;48.758;9.150;2023-11-21T04:10:14;2.30;;;1.13;;
45354;SDS011;31091;48.758;9.150;2023-11-21T04:13:00;3.15;;;1.50;;
45354;SDS011;31091;48.758;9.150;2023-11-21T04:15:46;4.82;;;1.60;;
45354;SDS011;31091;48.758;9.150;2023-11-21T04:18:31;2.25;;;1.60;;
45354;SDS011;31091;48.758;9.150;2023-11-21T04:21:16;3.50;;;1.42;;
45354;SDS011;31091;48.758;9.150;2023-11-21T04:24:01;1.33;;;0.90;;
45354;SDS011;31091;48.758;9.150;2023-11-21T04:26:46;2.20;;;1.08;;
45354;SDS011;31091;48.758;9.150;2023-11-21T04:29:32;1.05;;;0.80;;
45354;SDS011;31091;48.758;9.150;2023-11-21T04:32:17;1.38;;;0.90;;
45354;SDS011;31091;48.758;9.150;2023-11-21T04:35:02;3.92;;;1.05;;
45354;SDS011;31091;48.758;9.150;2023-11-21T04:37:49;4.05;;;1.08;;
45354;SDS011;31091;48.758;9.150;2023-11-21T04:40:36;2.22;;;0.95;;
45354;SDS011;31091;48.758;9.150;2023-11-21T04:43:21;1.40;;;0.98;;
45354;SDS011;31091;48.758;9.150;2023-11-21T04:46:06;3.85;;;1.10;;
45354;SDS011;31091;48.758;9.150;2023-11-21T04:48:52;3.35;;;1.60;;
45354;SDS011;31091;48.758;9.150;2023-11-21T04:51:37;1.48;;;1.10;;
45354;SDS011;31091;48.758;9.150;2023-11-21T04:54:22;4.25;;;1.20;;
45354;SDS011;31091;48.758;9.150;2023-11-21T04:57:08;2.20;;;0.93;;
45354;SDS011;31091;48.758;9.150;2023-11-21T04:59:53;6.90;;;1.10;;
45354;SDS011;31091;48.758;9.150;2023-11-21T05:02:39;5.40;;;0.90;;
45354;SDS011;31091;48.758;9.150;2023-11-21T05:05:24;2.78;;;0.88;;
45354;SDS011;31091;48.758;9.150;2023-11-21T05:08:10;3.50;;;1.10;;
45354;SDS011;31091;48.758;9.150;2023-11-21T05:10:55;2.85;;;1.45;;
45354;SDS011;31091;48.758;9.150;2023-11-21T05:13:40;2.65;;;1.33;;
45354;SDS011;31091;48.758;9.150;2023-11-21T05:16:25;4.93;;;1.48;;
45354;SDS011;31091;48.758;9.150;2023-11-21T05:19:12;2.90;;;1.25;;
45354;SDS011;31091;48.758;9.150;2023-11-21T05:21:58;5.15;;;1.65;;
45354;SDS011;31091;48.758;9.150;2023-11-21T05:24:44;2.38;;;0.90;;
45354;SDS011;31091;48.758;9.150;2023-11-21T05:27:29;4.10;;;1.10;;
45354;SDS011;31091;48.758;9.150;2023-11-21T05:30:15;3.78;;;1.00;;
45354;SDS011;31091;48.758;9.150;2023-11-21T05:33:01;2.42;;;1.52;;
45354;SDS011;31091;48.758;9.150;2023-11-21T05:35:46;5.07;;;1.40;;
45354;SDS011;31091;48.758;9.150;2023-11-21T05:38:33;2.47;;;1.25;;
45354;SDS011;31091;48.758;9.150;2023-11-21T05:41:18;3.60;;;1.10;;
45354;SDS011;31091;48.758;9.150;2023-11-21T05:44:04;1.30;;;0.93;;
45354;SDS011;31091;48.758;9.150;2023-11-21T05:46:49;3.22;;;1.45;;
45354;SDS011;31091;48.758;9.150;2023-11-21T05:49:35;4.00;;;1.20;;
45354;SDS011;31091;48.758;9.150;2023-11-21T05:52:21;1.55;;;0.98;;
45354;SDS011;31091;48.758;9.150;2023-11-21T05:55:06;2.22;;;1.55;;
45354;SDS011;31091;48.758;9.150;2023-11-21T05:57:54;3.00;;;1.20;;
45354;SDS011;31091;48.758;9.150;2023-11-21T06:00:39;4.38;;;1.77;;
45354;SDS011;31091;48.758;9.150;2023-11-21T06:03:25;4.10;;;1.38;;
45354;SDS011;31091;48.758;9.150;2023-11-21T06:06:10;3.95;;;1.30;;
45354;SDS011;31091;48.758;9.150;2023-11-21T06:08:55;2.58;;;1.13;;
45354;SDS011;31091;48.758;9.150;2023-11-21T06:11:43;8.02;;;1.30;;
45354;SDS011;31091;48.758;9.150;2023-11-21T06:14:32;2.45;;;1.00;;
45354;SDS011;31091;48.758;9.150;2023-11-21T06:17:20;4.85;;;1.85;;
45354;SDS011;31091;48.758;9.150;2023-11-21T06:20:05;2.92;;;1.05;;
45354;SDS011;31091;48.758;9.150;2023-11-21T06:22:54;2.07;;;1.73;;
45354;SDS011;31091;48.758;9.150;2023-11-21T06:25:42;4.82;;;1.17;;
45354;SDS011;31091;48.758;9.150;2023-11-21T06:28:27;5.57;;;0.85;;
45354;SDS011;31091;48.758;9.150;2023-11-21T06:31:12;5.40;;;0.98;;
45354;SDS011;31091;48.758;9.150;2023-11-21T06:33:59;3.55;;;1.00;;
45354;SDS011;31091;48.758;9.150;2023-11-21T06:36:45;1.85;;;1.02;;
45354;SDS011;31091;48.758;9.150;2023-11-21T06:39:30;2.20;;;0.90;;
45354;SDS011;31091;48.758;9.150;2023-11-21T06:42:15;1.73;;;1.05;;
45354;SDS011;31091;48.758;9.150;2023-11-21T06:45:00;1.80;;;1.13;;
45354;SDS011;31091;48.758;9.150;2023-11-21T06:47:48;3.50;;;1.25;;
45354;SDS011;31091;48.758;9.150;2023-11-21T06:50:34;5.13;;;1.45;;
45354;SDS011;31091;48.758;9.150;2023-11-21T06:53:19;2.00;;;1.40;;
45354;SDS011;31091;48.758;9.150;2023-11-21T06:56:04;3.03;;;1.10;;
45354;SDS011;31091;48.758;9.150;2023-11-21T06:58:50;3.00;;;1.23;;
45354;SDS011;31091;48.758;9.150;2023-11-21T07:01:38;1.10;;;1.00;;
45354;SDS011;31091;48.758;9.150;2023-11-21T07:04:26;4.25;;;1.73;;
45354;SDS011;31091;48.758;9.150;2023-11-21T07:07:11;2.72;;;1.25;;
45354;SDS011;31091;48.758;9.150;2023-11-21T07:09:56;3.05;;;1.20;;
45354;SDS011;31091;48.758;9.150;2023-11-21T07:12:42;2.75;;;1.25;;
45354;SDS011;31091;48.758;9.150;2023-11-21T07:15:27;1.58;;;1.13;;
45354;SDS011;31091;48.758;9.150;2023-11-21T07:18:13;1.88;;;1.15;;
45354;SDS011;31091;48.758;9.150;2023-11-21T07:20:58;1.38;;;1.08;;
45354;SDS011;31091;48.758;9.150;2023-11-21T07:23:43;4.38;;;1.42;;
45354;SDS011;31091;48.758;9.150;2023-11-21T07:26:29;3.65;;;1.33;;
45354;SDS011;31091;48.758;9.150;2023-11-21T07:29:14;1.98;;;1.20;;
45354;SDS011;31091;48.758;9.150;2023-11-21T07:32:00;2.60;;;1.58;;
45354;SDS011;31091;48.758;9.150;2023-11-21T07:34:45;3.33;;;1.48;;
45354;SDS011;31091;48.758;9.150;2023-11-21T07:37:30;4.88;;;1.45;;
45354;SDS011;31091;48.758;9.150;2023-11-21T07:40:16;2.55;;;1.17;;
45354;SDS011;31091;48.758;9.150;2023-11-21T07:43:01;6.85;;;1.67;;
45354;SDS011;31091;48.758;9.150;2023-11-21T07:45:47;3.35;;;1.60;;
45354;SDS011;31091;48.758;9.150;2023-11-21T07:48:32;5.47;;;1.65;;
45354;SDS011;31091;48.758;9.150;2023-11-21T07:51:17;4.75;;;2.05;;
45354;SDS011;31091;48.758;9.150;2023-11-21T07:54:03;4.28;;;1.30;;
45354;SDS011;31091;48.758;9.150;2023-11-21T07:56:48;2.97;;;1.63;;
45354;SDS011;31091;48.758;9.150;2023-11-21T07:59:33;2.85;;;1.40;;
45354;SDS011;31091;48.758;9.150;2023-11-21T08:02:19;4.65;;;1.85;;
45354;SDS011;31091;48.758;9.150;2023-11-21T08:05:05;3.50;;;1.17;;
45354;SDS011;31091;48.758;9.150;2023-11-21T08:07:52;4.25;;;1.92;;
45354;SDS011;31091;48.758;9.150;2023-11-21T08:10:37;4.70;;;1.20;;
45354;SDS011;31091;48.758;9.150;2023-11-21T08:13:23;3.05;;;1.20;;
45354;SDS011;31091;48.758;9.150;2023-11-21T08:16:08;5.90;;;1.98;;
45354;SDS011;31091;48.758;9.150;2023-11-21T08:18:53;2.63;;;1.60;;
45354;SDS011;31091;48.758;9.150;2023-11-21T08:21:39;3.08;;;1.95;;
45354;SDS011;31091;48.758;9.150;2023-11-21T08:24:25;2.90;;;1.75;;
45354;SDS011;31091;48.758;9.150;2023-11-21T08:27:10;2.38;;;1.58;;
45354;SDS011;31091;48.758;9.150;2023-11-21T08:29:56;4.00;;;2.15;;
45354;SDS011;31091;48.758;9.150;2023-11-21T08:32:42;5.45;;;1.73;;
45354;SDS011;31091;48.758;9.150;2023-11-21T08:35:27;3.53;;;1.67;;
45354;SDS011;31091;48.758;9.150;2023-11-21T08:38:12;5.15;;;1.95;;
45354;SDS011;31091;48.758;9.150;2023-11-21T08:40:58;3.88;;;1.70;;
45354;SDS011;31091;48.758;9.150;2023-11-21T08:43:43;1.60;;;1.30;;
45354;SDS011;31091;48.758;9.150;2023-11-21T08:46:29;1.83;;;1.25;;
45354;SDS011;31091;48.758;9.150;2023-11-21T08:49:15;3.17;;;1.75;;
45354;SDS011;31091;48.758;9.150;2023-11-21T08:52:00;7.57;;;2.22;;
45354;SDS011;31091;48.758;9.150;2023-11-21T08:54:45;6.00;;;2.17;;
45354;SDS011;31091;48.758;9.150;2023-11-21T08:57:30;3.63;;;1.50;;
45354;SDS011;31091;48.758;9.150;2023-11-21T09:00:16;2.35;;;1.52;;
45354;SDS011;31091;48.758;9.150;2023-11-21T09:03:04;3.55;;;1.48;;
45354;SDS011;31091;48.758;9.150;2023-11-21T09:05:53;3.25;;;1.92;;
45354;SDS011;31091;48.758;9.150;2023-11-21T09:08:38;2.58;;;1.10;;
45354;SDS011;31091;48.758;9.150;2023-11-21T09:11:24;3.00;;;1.50;;
45354;SDS011;31091;48.758;9.150;2023-11-21T09:14:10;3.22;;;1.30;;
45354;SDS011;31091;48.758;9.150;2023-11-21T09:16:57;1.92;;;1.02;;
45354;SDS011;31091;48.758;9.150;2023-11-21T09:19:43;1.83;;;1.60;;
45354;SDS011;31091;48.758;9.150;2023-11-21T09:22:35;3.13;;;1.58;;
45354;SDS011;31091;48.758;9.150;2023-11-21T09:25:20;3.65;;;1.38;;
45354;SDS011;31091;48.758;9.150;2023-11-21T09:28:06;2.20;;;1.63;;
45354;SDS011;31091;48.758;9.150;2023-11-21T09:30:54;5.75;;;1.50;;
45354;SDS011;31091;48.758;9.150;2023-11-21T09:33:39;2.10;;;1.33;;
45354;SDS011;31091;48.758;9.150;2023-11-21T09:36:28;2.28;;;1.13;;
45354;SDS011;31091;48.758;9.150;2023-11-21T09:39:15;2.03;;;1.55;;
45354;SDS011;31091;48.758;9.150;2023-11-21T09:42:21;4.25;;;1.23;;
45354;SDS011;31091;48.758;9.150;2023-11-21T09:45:11;3.35;;;1.65;;
45354;SDS011;31091;48.758;9.150;2023-11-21T09:47:59;2.25;;;1.00;;
45354;SDS011;31091;48.758;9.150;2023-11-21T09:50:45;3.55;;;1.30;;
45354;SDS011;31091;48.758;9.150;2023-11-21T09:53:32;1.42;;;1.00;;
45354;SDS011;31091;48.758;9.150;2023-11-21T09:56:19;2.47;;;1.00;;
45354;SDS011;31091;48.758;9.150;2023-11-21T09:59:10;2.15;;;0.90;;
45354;SDS011;31091;48.758;9.150;2023-11-21T10:01:58;4.03;;;1.15;;
45354;SDS011;31091;48.758;9.150;2023-11-21T10:04:43;1.45;;;1.08;;
45354;SDS011;31091;48.758;9.150;2023-11-21T10:07:28;2.30;;;1.20;;
45354;SDS011;31091;48.758;9.150;2023-11-21T10:10:14;4.88;;;1.08;;
45354;SDS011;31091;48.758;9.150;2023-11-21T10:13:02;2.05;;;0.93;;
45354;SDS011;31091;48.758;9.150;2023-11-21T10:18:36;6.40;;;1.23;;
45354;SDS011;31091;48.758;9.150;2023-11-21T10:21:24;2.75;;;1.25;;
45354;SDS011;31091;48.758;9.150;2023-11-21T10:24:10;3.60;;;1.65;;
45354;SDS011;31091;48.758;9.150;2023-11-21T10:26:57;2.03;;;1.08;;
45354;SDS011;31091;48.758;9.150;2023-11-21T10:29:42;0.80;;;0.80;;
45354;SDS011;31091;48.758;9.150;2023-11-21T10:32:28;1.40;;;0.80;;
45354;SDS011;31091;48.758;9.150;2023-11-21T10:35:13;2.50;;;1.08;;
45354;SDS011;31091;48.758;9.150;2023-11-21T10:38:02;1.17;;;0.90;;
45354;SDS011;31091;48.758;9.150;2023-11-21T10:40:48;1.92;;;1.30;;
45354;SDS011;31091;48.758;9.150;2023-11-21T10:43:34;1.90;;;1.15;;
45354;SDS011;31091;48.758;9.150;2023-11-21T10:46:19;2.33;;;1.08;;
45354;SDS011;31091;48.758;9.150;2023-11-21T10:52:18;2.80;;;1.23;;
45354;SDS011;31091;48.758;9.150;2023-11-21T10:55:06;2.97;;;1.25;;
45354;SDS011;31091;48.758;9.150;2023-11-21T10:58:03;1.40;;;1.10;;
45354;SDS011;31091;48.758;9.150;2023-11-21T11:00:50;2.22;;;1.30;;
45354;SDS011;31091;48.758;9.150;2023-11-21T11:03:37;2.80;;;1.35;;
45354;SDS011;31091;48.758;9.150;2023-11-21T11:06:22;2.42;;;1.15;;
45354;SDS011;31091;48.758;9.150;2023-11-21T11:09:12;4.20;;;1.55;;
45354;SDS011;31091;48.758;9.150;2023-11-21T11:11:58;2.25;;;1.20;;
45354;SDS011;31091;48.758;9.150;2023-11-21T11:14:44;1.35;;;0.93;;
45354;SDS011;31091;48.758;9.150;2023-11-21T11:17:30;0.95;;;0.93;;
45354;SDS011;31091;48.758;9.150;2023-11-21T11:20:16;2.03;;;0.95;;
45354;SDS011;31091;48.758;9.150;2023-11-21T11:28:52;2.63;;;1.30;;
45354;SDS011;31091;48.758;9.150;2023-11-21T11:34:30;1.85;;;1.02;;
45354;SDS011;31091;48.758;9.150;2023-11-21T11:37:18;4.95;;;1.48;;
45354;SDS011;31091;48.758;9.150;2023-11-21T11:40:05;2.83;;;2.28;;
45354;SDS011;31091;48.758;9.150;2023-11-21T11:42:57;3.83;;;1.30;;
45354;SDS011;31091;48.758;9.150;2023-11-21T11:45:47;2.05;;;0.80;;
45354;SDS011;31091;48.758;9.150;2023-11-21T11:48:40;1.27;;;1.02;;
45354;SDS011;31091;48.758;9.150;2023-11-21T11:51:25;3.80;;;1.50;;
45354;SDS011;31091;48.758;9.150;2023-11-21T11:54:11;2.35;;;1.40;;
45354;SDS011;31091;48.758;9.150;2023-11-21T11:56:58;1.80;;;1.10;;
45354;SDS011;31091;48.758;9.150;2023-11-21T12:03:01;2.35;;;0.82;;
45354;SDS011;31091;48.758;9.150;2023-11-21T12:05:50;1.42;;;0.85;;
45354;SDS011;31091;48.758;9.150;2023-11-21T12:08:37;1.00;;;0.90;;
45354;SDS011;31091;48.758;9.150;2023-11-21T12:11:28;1.77;;;0.88;;
45354;SDS011;31091;48.758;9.150;2023-11-21T12:14:15;1.02;;;0.77;;
45354;SDS011;31091;48.758;9.150;2023-11-21T12:17:00;1.45;;;1.02;;
45354;SDS011;31091;48.758;9.150;2023-11-21T12:19:47;2.60;;;1.10;;
45354;SDS011;31091;48.758;9.150;2023-11-21T12:22:32;1.10;;;1.00;;
45354;SDS011;31091;48.758;9.150;2023-11-21T12:25:18;0.88;;;0.88;;
45354;SDS011;31091;48.758;9.150;2023-11-21T12:28:04;1.20;;;1.00;;
45354;SDS011;31091;48.758;9.150;2023-11-21T12:30:50;2.70;;;1.27;;
45354;SDS011;31091;48.758;9.150;2023-11-21T12:33:35;2.25;;;1.40;;
45354;SDS011;31091;48.758;9.150;2023-11-21T12:36:21;1.70;;;1.13;;
45354;SDS011;31091;48.758;9.150;2023-11-21T12:39:06;1.95;;;1.30;;
45354;SDS011;31091;48.758;9.150;2023-11-21T12:41:54;3.47;;;1.88;;
45354;SDS011;31091;48.758;9.150;2023-11-21T12:44:42;2.80;;;1.27;;
45354;SDS011;31091;48.758;9.150;2023-11-21T12:47:30;2.25;;;1.40;;
45354;SDS011;31091;48.758;9.150;2023-11-21T12:50:19;3.65;;;1.85;;
45354;SDS011;31091;48.758;9.150;2023-11-21T12:53:10;2.55;;;1.63;;
45354;SDS011;31091;48.758;9.150;2023-11-21T12:55:58;3.22;;;1.40;;
45354;SDS011;31091;48.758;9.150;2023-11-21T12:58:44;2.25;;;1.30;;
45354;SDS011;31091;48.758;9.150;2023-11-21T13:01:31;1.67;;;1.02;;
45354;SDS011;31091;48.758;9.150;2023-11-21T13:04:17;1.98;;;1.40;;
45354;SDS011;31091;48.758;9.150;2023-11-21T13:07:04;1.45;;;1.30;;
45354;SDS011;31091;48.758;9.150;2023-11-21T13:09:59;2.10;;;1.20;;
45354;SDS011;31091;48.758;9.150;2023-11-21T13:12:44;1.27;;;1.17;;
45354;SDS011;31091;48.758;9.150;2023-11-21T13:15:32;1.30;;;1.20;;
45354;SDS011;31091;48.758;9.150;2023-11-21T13:18:20;1.83;;;1.20;;
45354;SDS011;31091;48.758;9.150;2023-11-21T13:21:07;2.78;;;1.08;;
45354;SDS011;31091;48.758;9.150;2023-11-21T13:23:57;3.65;;;1.20;;
45354;SDS011;31091;48.758;9.150;2023-11-21T13:26:42;1.40;;;1.10;;
45354;SDS011;31091;48.758;9.150;2023-11-21T13:29:27;1.40;;;1.08;;
45354;SDS011;31091;48.758;9.150;2023-11-21T13:32:14;2.00;;;1.17;;
45354;SDS011;31091;48.758;9.150;2023-11-21T13:35:01;1.67;;;0.93;;
45354;SDS011;31091;48.758;9.150;2023-11-21T13:37:47;0.90;;;0.70;;
45354;SDS011;31091;48.758;9.150;2023-11-21T13:40:34;0.52;;;0.52;;
45354;SDS011;31091;48.758;9.150;2023-11-21T13:43:24;0.80;;;0.63;;
45354;SDS011;31091;48.758;9.150;2023-11-21T13:46:11;0.68;;;0.68;;
45354;SDS011;31091;48.758;9.150;2023-11-21T13:49:01;1.65;;;0.90;;
45354;SDS011;31091;48.758;9.150;2023-11-21T13:51:47;0.60;;;0.60;;
45354;SDS011;31091;48.758;9.150;2023-11-21T13:54:37;0.90;;;0.80;;
45354;SDS011;31091;48.758;9.150;2023-11-21T13:57:23;1.90;;;1.45;;
45354;SDS011;31091;48.758;9.150;2023-11-21T14:00:08;1.83;;;0.90;;
45354;SDS011;31091;48.758;9.150;2023-11-21T14:03:02;2.72;;;1.10;;
45354;SDS011;31091;48.758;9.150;2023-11-21T14:05:51;0.95;;;0.80;;
45354;SDS011;31091;48.758;9.150;2023-11-21T14:08:36;1.13;;;1.00;;
45354;SDS011;31091;48.758;9.150;2023-11-21T14:11:21;2.90;;;1.15;;
45354;SDS011;31091;48.758;9.150;2023-11-21T14:14:07;1.50;;;1.23;;
45354;SDS011;31091;48.758;9.150;2023-11-21T14:16:52;1.80;;;1.10;;
45354;SDS011;31091;48.758;9.150;2023-11-21T14:19:37;2.72;;;1.20;;
45354;SDS011;31091;48.758;9.150;2023-11-21T14:22:31;2.40;;;1.40;;
45354;SDS011;31091;48.758;9.150;2023-11-21T14:25:16;3.08;;;1.48;;
45354;SDS011;31091;48.758;9.150;2023-11-21T14:28:03;2.13;;;1.52;;
45354;SDS011;31091;48.758;9.150;2023-11-21T14:30:51;2.40;;;1.20;;
45354;SDS011;31091;48.758;9.150;2023-11-21T14:33:37;1.73;;;1.30;;
45354;SDS011;31091;48.758;9.150;2023-11-21T14:36:22;1.63;;;1.33;;
45354;SDS011;31091;48.758;9.150;2023-11-21T14:39:09;3.35;;;1.52;;
45354;SDS011;31091;48.758;9.150;2023-11-21T14:42:05;2.63;;;1.50;;
45354;SDS011;31091;48.758;9.150;2023-11-21T14:44:53;2.20;;;1.80;;
45354;SDS011;31091;48.758;9.150;2023-11-21T14:47:40;2.85;;;1.70;;
45354;SDS011;31091;48.758;9.150;2023-11-21T14:50:30;2.72;;;1.70;;
45354;SDS011;31091;48.758;9.150;2023-11-21T14:53:28;3.38;;;1.50;;
45354;SDS011;31091;48.758;9.150;2023-11-21T14:56:27;2.50;;;1.65;;
45354;SDS011;31091;48.758;9.150;2023-11-21T14:59:18;2.72;;;1.60;;
45354;SDS011;31091;48.758;9.150;2023-11-21T15:02:03;2.08;;;1.60;;
45354;SDS011;31091;48.758;9.150;2023-11-21T15:05:05;2.28;;;1.73;;
45354;SDS011;31091;48.758;9.150;2023-11-21T15:07:54;2.95;;;1.58;;
45354;SDS011;31091;48.758;9.150;2023-11-21T15:10:41;3.38;;;1.98;;
45354;SDS011;31091;48.758;9.150;2023-11-21T15:13:38;3.28;;;1.70;;
45354;SDS011;31091;48.758;9.150;2023-11-21T15:16:23;2.72;;;1.70;;
45354;SDS011;31091;48.758;9.150;2023-11-21T15:19:08;2.72;;;1.95;;
45354;SDS011;31091;48.758;9.150;2023-11-21T15:21:54;7.35;;;2.10;;
45354;SDS011;31091;48.758;9.150;2023-11-21T15:24:39;4.95;;;1.85;;
45354;SDS011;31091;48.758;9.150;2023-11-21T15:27:26;3.22;;;2.15;;
45354;SDS011;31091;48.758;9.150;2023-11-21T15:30:12;3.63;;;2.00;;
45354;SDS011;31091;48.758;9.150;2023-11-21T15:33:00;6.20;;;3.20;;
45354;SDS011;31091;48.758;9.150;2023-11-21T15:35:46;7.00;;;1.92;;
45354;SDS011;31091;48.758;9.150;2023-11-21T15:38:31;5.03;;;2.70;;
45354;SDS011;31091;48.758;9.150;2023-11-21T15:41:16;5.85;;;2.72;;
45354;SDS011;31091;48.758;9.150;2023-11-21T15:44:02;3.45;;;2.50;;
45354;SDS011;31091;48.758;9.150;2023-11-21T15:46:49;5.85;;;2.85;;
45354;SDS011;31091;48.758;9.150;2023-11-21T15:49:34;5.35;;;3.08;;
45354;SDS011;31091;48.758;9.150;2023-11-21T15:52:21;4.95;;;2.75;;
45354;SDS011;31091;48.758;9.150;2023-11-21T15:55:06;4.60;;;2.53;;
45354;SDS011;31091;48.758;9.150;2023-11-21T15:57:53;5.25;;;2.92;;
45354;SDS011;31091;48.758;9.150;2023-11-21T16:00:38;8.25;;;3.53;;
45354;SDS011;31091;48.758;9.150;2023-11-21T16:03:24;5.75;;;3.35;;
45354;SDS011;31091;48.758;9.150;2023-11-21T16:06:09;4.63;;;3.65;;
45354;SDS011;31091;48.758;9.150;2023-11-21T16:08:56;7.40;;;3.25;;
45354;SDS011;31091;48.758;9.150;2023-11-21T16:11:43;5.78;;;2.90;;
45354;SDS011;31091;48.758;9.150;2023-11-21T16:14:32;5.72;;;3.85;;
45354;SDS011;31091;48.758;9.150;2023-11-21T16:17:20;9.50;;;3.28;;
45354;SDS011;31091;48.758;9.150;2023-11-21T16:20:08;5.80;;;3.35;;
45354;SDS011;31091;48.758;9.150;2023-11-21T16:22:56;4.85;;;3.00;;
45354;SDS011;31091;48.758;9.150;2023-11-21T16:25:41;6.93;;;3.45;;
45354;SDS011;31091;48.758;9.150;2023-11-21T16:28:26;11.07;;;3.33;;
45354;SDS011;31091;48.758;9.150;2023-11-21T16:31:11;7.00;;;3.70;;
45354;SDS011;31091;48.758;9.150;2023-11-21T16:33:57;5.85;;;3.22;;
45354;SDS011;31091;48.758;9.150;2023-11-21T16:36:42;6.25;;;3.63;;
45354;SDS011;31091;48.758;9.150;2023-11-21T16:39:27;8.52;;;4.22;;
45354;SDS011;31091;48.758;9.150;2023-11-21T16:42:13;6.00;;;3.75;;
45354;SDS011;31091;48.758;9.150;2023-11-21T16:44:59;5.72;;;3.65;;
45354;SDS011;31091;48.758;9.150;2023-11-21T16:47:44;6.07;;;3.65;;
45354;SDS011;31091;48.758;9.150;2023-11-21T16:50:30;10.02;;;3.50;;
45354;SDS011;31091;48.758;9.150;2023-11-21T16:53:15;5.68;;;3.25;;
45354;SDS011;31091;48.758;9.150;2023-11-21T16:56:00;10.50;;;3.47;;
45354;SDS011;31091;48.758;9.150;2023-11-21T16:58:45;7.22;;;3.97;;
45354;SDS011;31091;48.758;9.150;2023-11-21T17:01:31;8.55;;;3.70;;